FYRN

Rhino Camp Airport

Rhino Camp, Namibia
METAR FYRN 201600Z 30007KT 9999 TSRA FEW030CB SCT040TCU 33/13 Q1014 RETS
Observed Flight Rules
Oct-20 @ 16:00 UTC (an hour ago) Visual Flight Rules
Wind Visibility Clouds Conditions
300° at 7 knots 10,000+ meters
  • Few at 3,000' AGL
  • Scattered at 4,000' AGL
  • Thunderstorm
  • Rain
Temperatures Readings
Current 33°C / 91°F
Dewpoint 13°C / 55°F
Humidity 30%
Altimeter 29.94" Hg
Pressure 1014 hPa
Elevation 756
METAR FYRN 201600Z 30007KT 9999 TSRA FEW030CB SCT040TCU 33/13 Q1014 RETS
Observed Flight Rules
Oct-20 @ 16:00 UTC
(an hour ago)
VFR
Wind Visibility
300° at 7 knots 10,000+ meters
Clouds
  • Few at 3,000' AGL
  • Scattered at 4,000' AGL
Conditions
  • Thunderstorm
  • Rain
Temperature Dewpoint
33°C / 91°F 13°C / 55°F
Humidity Altimeter Pressure
30% 29.94" Hg 1014 hPa